sensor_id;sensor_type;location;lat;lon;timestamp;P1;durP1;ratioP1;P2;durP2;ratioP2
51248;SDS011;39642;47.556;18.728;2023-07-13T00:00:28;10.77;;;4.20;;
51248;SDS011;39642;47.556;18.728;2023-07-13T00:02:54;10.90;;;4.43;;
51248;SDS011;39642;47.556;18.728;2023-07-13T00:05:20;11.05;;;4.20;;
51248;SDS011;39642;47.556;18.728;2023-07-13T00:07:47;11.38;;;4.40;;
51248;SDS011;39642;47.556;18.728;2023-07-13T00:10:14;12.75;;;4.50;;
51248;SDS011;39642;47.556;18.728;2023-07-13T00:12:40;10.48;;;4.50;;
51248;SDS011;39642;47.556;18.728;2023-07-13T00:15:09;11.57;;;4.50;;
51248;SDS011;39642;47.556;18.728;2023-07-13T00:17:39;11.38;;;4.20;;
51248;SDS011;39642;47.556;18.728;2023-07-13T00:20:05;10.93;;;4.28;;
51248;SDS011;39642;47.556;18.728;2023-07-13T00:22:32;10.98;;;4.07;;
51248;SDS011;39642;47.556;18.728;2023-07-13T00:24:58;10.55;;;3.92;;
51248;SDS011;39642;47.556;18.728;2023-07-13T00:27:24;11.38;;;4.15;;
51248;SDS011;39642;47.556;18.728;2023-07-13T00:29:52;11.55;;;3.95;;
51248;SDS011;39642;47.556;18.728;2023-07-13T00:32:18;11.12;;;3.92;;
51248;SDS011;39642;47.556;18.728;2023-07-13T00:34:44;10.48;;;4.15;;
51248;SDS011;39642;47.556;18.728;2023-07-13T00:37:10;10.85;;;4.18;;
51248;SDS011;39642;47.556;18.728;2023-07-13T00:39:36;9.48;;;3.97;;
51248;SDS011;39642;47.556;18.728;2023-07-13T00:42:03;11.85;;;3.80;;
51248;SDS011;39642;47.556;18.728;2023-07-13T00:44:29;10.43;;;3.90;;
51248;SDS011;39642;47.556;18.728;2023-07-13T00:46:55;10.65;;;3.95;;
51248;SDS011;39642;47.556;18.728;2023-07-13T00:49:24;12.13;;;3.83;;
51248;SDS011;39642;47.556;18.728;2023-07-13T00:51:57;11.98;;;4.20;;
51248;SDS011;39642;47.556;18.728;2023-07-13T00:54:29;11.52;;;3.70;;
51248;SDS011;39642;47.556;18.728;2023-07-13T00:56:58;11.40;;;3.62;;
51248;SDS011;39642;47.556;18.728;2023-07-13T00:59:27;11.07;;;3.55;;
51248;SDS011;39642;47.556;18.728;2023-07-13T01:01:53;10.15;;;3.40;;
51248;SDS011;39642;47.556;18.728;2023-07-13T01:04:19;10.93;;;3.70;;
51248;SDS011;39642;47.556;18.728;2023-07-13T01:06:46;11.73;;;3.90;;
51248;SDS011;39642;47.556;18.728;2023-07-13T01:09:14;10.85;;;3.33;;
51248;SDS011;39642;47.556;18.728;2023-07-13T01:11:41;10.00;;;3.45;;
51248;SDS011;39642;47.556;18.728;2023-07-13T01:14:08;10.65;;;3.42;;
51248;SDS011;39642;47.556;18.728;2023-07-13T01:16:34;9.80;;;3.37;;
51248;SDS011;39642;47.556;18.728;2023-07-13T01:19:03;10.60;;;3.60;;
51248;SDS011;39642;47.556;18.728;2023-07-13T01:21:51;9.32;;;3.40;;
51248;SDS011;39642;47.556;18.728;2023-07-13T01:24:18;10.50;;;3.60;;
51248;SDS011;39642;47.556;18.728;2023-07-13T01:26:44;9.38;;;3.25;;
51248;SDS011;39642;47.556;18.728;2023-07-13T01:29:10;9.27;;;3.30;;
51248;SDS011;39642;47.556;18.728;2023-07-13T01:31:36;9.32;;;3.10;;
51248;SDS011;39642;47.556;18.728;2023-07-13T01:34:01;10.00;;;3.35;;
51248;SDS011;39642;47.556;18.728;2023-07-13T01:36:27;10.88;;;3.40;;
51248;SDS011;39642;47.556;18.728;2023-07-13T01:38:53;9.57;;;2.60;;
51248;SDS011;39642;47.556;18.728;2023-07-13T01:41:19;8.85;;;2.95;;
51248;SDS011;39642;47.556;18.728;2023-07-13T01:43:45;10.05;;;3.33;;
51248;SDS011;39642;47.556;18.728;2023-07-13T01:46:11;8.75;;;2.87;;
51248;SDS011;39642;47.556;18.728;2023-07-13T01:48:37;9.43;;;3.10;;
51248;SDS011;39642;47.556;18.728;2023-07-13T01:51:02;10.40;;;3.20;;
51248;SDS011;39642;47.556;18.728;2023-07-13T01:53:28;8.82;;;2.80;;
51248;SDS011;39642;47.556;18.728;2023-07-13T01:55:54;9.95;;;2.75;;
51248;SDS011;39642;47.556;18.728;2023-07-13T01:58:20;8.98;;;2.85;;
51248;SDS011;39642;47.556;18.728;2023-07-13T02:00:47;8.75;;;2.83;;
51248;SDS011;39642;47.556;18.728;2023-07-13T02:03:14;9.02;;;3.00;;
51248;SDS011;39642;47.556;18.728;2023-07-13T02:05:43;9.18;;;3.22;;
51248;SDS011;39642;47.556;18.728;2023-07-13T02:08:10;9.27;;;2.70;;
51248;SDS011;39642;47.556;18.728;2023-07-13T02:10:36;9.30;;;3.00;;
51248;SDS011;39642;47.556;18.728;2023-07-13T02:13:06;10.18;;;2.95;;
51248;SDS011;39642;47.556;18.728;2023-07-13T02:15:32;8.63;;;2.62;;
51248;SDS011;39642;47.556;18.728;2023-07-13T02:17:58;9.38;;;2.92;;
51248;SDS011;39642;47.556;18.728;2023-07-13T02:20:24;8.35;;;2.70;;
51248;SDS011;39642;47.556;18.728;2023-07-13T02:22:51;9.48;;;2.80;;
51248;SDS011;39642;47.556;18.728;2023-07-13T02:25:17;10.02;;;3.10;;
51248;SDS011;39642;47.556;18.728;2023-07-13T02:27:43;8.68;;;2.90;;
51248;SDS011;39642;47.556;18.728;2023-07-13T02:30:10;10.55;;;3.00;;
51248;SDS011;39642;47.556;18.728;2023-07-13T02:32:36;9.10;;;3.00;;
51248;SDS011;39642;47.556;18.728;2023-07-13T02:35:02;10.02;;;2.92;;
51248;SDS011;39642;47.556;18.728;2023-07-13T02:37:28;8.25;;;2.90;;
51248;SDS011;39642;47.556;18.728;2023-07-13T02:39:55;10.75;;;2.75;;
51248;SDS011;39642;47.556;18.728;2023-07-13T02:42:21;9.88;;;2.92;;
51248;SDS011;39642;47.556;18.728;2023-07-13T02:44:47;10.90;;;2.92;;
51248;SDS011;39642;47.556;18.728;2023-07-13T02:47:13;9.63;;;2.90;;
51248;SDS011;39642;47.556;18.728;2023-07-13T02:49:39;9.82;;;2.97;;
51248;SDS011;39642;47.556;18.728;2023-07-13T02:52:05;9.50;;;2.70;;
51248;SDS011;39642;47.556;18.728;2023-07-13T02:54:31;9.95;;;2.70;;
51248;SDS011;39642;47.556;18.728;2023-07-13T02:56:57;8.00;;;2.47;;
51248;SDS011;39642;47.556;18.728;2023-07-13T02:59:23;9.02;;;2.60;;
51248;SDS011;39642;47.556;18.728;2023-07-13T03:01:49;10.15;;;2.85;;
51248;SDS011;39642;47.556;18.728;2023-07-13T03:04:14;10.07;;;2.83;;
51248;SDS011;39642;47.556;18.728;2023-07-13T03:06:45;9.82;;;2.75;;
51248;SDS011;39642;47.556;18.728;2023-07-13T03:09:11;9.75;;;3.00;;
51248;SDS011;39642;47.556;18.728;2023-07-13T03:11:38;9.57;;;2.90;;
51248;SDS011;39642;47.556;18.728;2023-07-13T03:14:04;12.43;;;3.15;;
51248;SDS011;39642;47.556;18.728;2023-07-13T03:16:30;9.07;;;2.85;;
51248;SDS011;39642;47.556;18.728;2023-07-13T03:18:56;9.70;;;3.00;;
51248;SDS011;39642;47.556;18.728;2023-07-13T03:21:22;8.85;;;3.00;;
51248;SDS011;39642;47.556;18.728;2023-07-13T03:23:48;11.85;;;2.97;;
51248;SDS011;39642;47.556;18.728;2023-07-13T03:26:15;9.35;;;2.85;;
51248;SDS011;39642;47.556;18.728;2023-07-13T03:28:43;10.15;;;2.70;;
51248;SDS011;39642;47.556;18.728;2023-07-13T03:31:11;9.82;;;2.90;;
51248;SDS011;39642;47.556;18.728;2023-07-13T03:33:40;10.13;;;3.00;;
51248;SDS011;39642;47.556;18.728;2023-07-13T03:36:06;13.05;;;3.12;;
51248;SDS011;39642;47.556;18.728;2023-07-13T03:38:34;8.05;;;2.70;;
51248;SDS011;39642;47.556;18.728;2023-07-13T03:41:00;9.52;;;3.03;;
51248;SDS011;39642;47.556;18.728;2023-07-13T03:43:26;10.38;;;2.75;;
51248;SDS011;39642;47.556;18.728;2023-07-13T03:45:52;7.78;;;2.58;;
51248;SDS011;39642;47.556;18.728;2023-07-13T03:48:18;9.23;;;2.92;;
51248;SDS011;39642;47.556;18.728;2023-07-13T03:50:43;9.32;;;3.17;;
51248;SDS011;39642;47.556;18.728;2023-07-13T03:53:09;10.07;;;2.83;;
51248;SDS011;39642;47.556;18.728;2023-07-13T03:55:35;9.07;;;2.80;;
51248;SDS011;39642;47.556;18.728;2023-07-13T03:58:24;8.95;;;2.80;;
51248;SDS011;39642;47.556;18.728;2023-07-13T04:00:52;9.48;;;2.97;;
51248;SDS011;39642;47.556;18.728;2023-07-13T04:03:19;9.30;;;2.95;;
51248;SDS011;39642;47.556;18.728;2023-07-13T04:05:45;10.02;;;3.05;;
51248;SDS011;39642;47.556;18.728;2023-07-13T04:08:11;9.10;;;3.20;;
51248;SDS011;39642;47.556;18.728;2023-07-13T04:10:38;10.68;;;3.50;;
51248;SDS011;39642;47.556;18.728;2023-07-13T04:13:04;9.23;;;3.10;;
51248;SDS011;39642;47.556;18.728;2023-07-13T04:15:30;10.35;;;3.10;;
51248;SDS011;39642;47.556;18.728;2023-07-13T04:17:57;10.20;;;3.25;;
51248;SDS011;39642;47.556;18.728;2023-07-13T04:20:26;11.32;;;3.28;;
51248;SDS011;39642;47.556;18.728;2023-07-13T04:22:52;8.20;;;2.78;;
51248;SDS011;39642;47.556;18.728;2023-07-13T04:25:19;9.52;;;3.03;;
51248;SDS011;39642;47.556;18.728;2023-07-13T04:27:45;10.90;;;3.33;;
51248;SDS011;39642;47.556;18.728;2023-07-13T04:30:11;9.23;;;3.00;;
51248;SDS011;39642;47.556;18.728;2023-07-13T04:32:37;11.55;;;3.17;;
51248;SDS011;39642;47.556;18.728;2023-07-13T04:35:03;10.02;;;2.95;;
51248;SDS011;39642;47.556;18.728;2023-07-13T04:37:29;10.73;;;3.30;;
51248;SDS011;39642;47.556;18.728;2023-07-13T04:39:55;11.00;;;3.22;;
51248;SDS011;39642;47.556;18.728;2023-07-13T04:42:21;10.40;;;3.42;;
51248;SDS011;39642;47.556;18.728;2023-07-13T04:44:48;8.30;;;3.00;;
51248;SDS011;39642;47.556;18.728;2023-07-13T04:47:14;9.07;;;3.12;;
51248;SDS011;39642;47.556;18.728;2023-07-13T04:49:40;8.65;;;2.83;;
51248;SDS011;39642;47.556;18.728;2023-07-13T04:52:06;7.87;;;2.65;;
51248;SDS011;39642;47.556;18.728;2023-07-13T04:54:33;8.35;;;2.83;;
51248;SDS011;39642;47.556;18.728;2023-07-13T04:57:00;9.23;;;2.90;;
51248;SDS011;39642;47.556;18.728;2023-07-13T04:59:26;10.00;;;3.20;;
51248;SDS011;39642;47.556;18.728;2023-07-13T05:01:52;9.55;;;2.80;;
51248;SDS011;39642;47.556;18.728;2023-07-13T05:04:18;8.60;;;2.87;;
51248;SDS011;39642;47.556;18.728;2023-07-13T05:06:44;9.00;;;3.28;;
51248;SDS011;39642;47.556;18.728;2023-07-13T05:09:10;10.88;;;3.03;;
51248;SDS011;39642;47.556;18.728;2023-07-13T05:11:38;11.65;;;3.22;;
51248;SDS011;39642;47.556;18.728;2023-07-13T05:14:04;12.60;;;2.90;;
51248;SDS011;39642;47.556;18.728;2023-07-13T05:16:29;10.82;;;3.28;;
51248;SDS011;39642;47.556;18.728;2023-07-13T05:18:55;9.88;;;3.03;;
51248;SDS011;39642;47.556;18.728;2023-07-13T05:21:21;9.45;;;3.00;;
51248;SDS011;39642;47.556;18.728;2023-07-13T05:23:47;9.52;;;2.90;;
51248;SDS011;39642;47.556;18.728;2023-07-13T05:26:13;9.88;;;3.00;;
51248;SDS011;39642;47.556;18.728;2023-07-13T05:28:39;10.07;;;3.00;;
51248;SDS011;39642;47.556;18.728;2023-07-13T05:31:06;10.80;;;3.47;;
51248;SDS011;39642;47.556;18.728;2023-07-13T05:33:34;9.30;;;2.90;;
51248;SDS011;39642;47.556;18.728;2023-07-13T05:36:00;9.60;;;2.80;;
51248;SDS011;39642;47.556;18.728;2023-07-13T05:38:26;9.15;;;2.67;;
51248;SDS011;39642;47.556;18.728;2023-07-13T05:40:53;12.50;;;3.00;;
51248;SDS011;39642;47.556;18.728;2023-07-13T05:43:21;8.20;;;2.58;;
51248;SDS011;39642;47.556;18.728;2023-07-13T05:45:48;9.48;;;2.72;;
51248;SDS011;39642;47.556;18.728;2023-07-13T05:48:14;8.40;;;2.60;;
51248;SDS011;39642;47.556;18.728;2023-07-13T05:50:40;8.90;;;2.80;;
51248;SDS011;39642;47.556;18.728;2023-07-13T05:53:06;8.52;;;2.60;;
51248;SDS011;39642;47.556;18.728;2023-07-13T05:55:32;8.50;;;2.80;;
51248;SDS011;39642;47.556;18.728;2023-07-13T05:57:59;10.65;;;2.80;;
51248;SDS011;39642;47.556;18.728;2023-07-13T06:00:26;8.43;;;2.53;;
51248;SDS011;39642;47.556;18.728;2023-07-13T06:02:52;9.38;;;2.40;;
51248;SDS011;39642;47.556;18.728;2023-07-13T06:05:18;8.38;;;2.72;;
51248;SDS011;39642;47.556;18.728;2023-07-13T06:07:44;9.20;;;2.45;;
51248;SDS011;39642;47.556;18.728;2023-07-13T06:10:10;10.10;;;2.47;;
51248;SDS011;39642;47.556;18.728;2023-07-13T06:12:36;9.52;;;2.62;;
51248;SDS011;39642;47.556;18.728;2023-07-13T06:15:02;10.40;;;2.50;;
51248;SDS011;39642;47.556;18.728;2023-07-13T06:17:29;11.10;;;2.60;;
51248;SDS011;39642;47.556;18.728;2023-07-13T06:19:55;9.15;;;2.50;;
51248;SDS011;39642;47.556;18.728;2023-07-13T06:22:20;8.55;;;2.72;;
51248;SDS011;39642;47.556;18.728;2023-07-13T06:24:46;8.52;;;2.42;;
51248;SDS011;39642;47.556;18.728;2023-07-13T06:27:12;11.45;;;2.87;;
51248;SDS011;39642;47.556;18.728;2023-07-13T06:29:38;8.30;;;2.53;;
51248;SDS011;39642;47.556;18.728;2023-07-13T06:32:05;9.95;;;2.65;;
51248;SDS011;39642;47.556;18.728;2023-07-13T06:34:31;10.85;;;2.75;;
51248;SDS011;39642;47.556;18.728;2023-07-13T06:36:57;8.57;;;2.65;;
51248;SDS011;39642;47.556;18.728;2023-07-13T06:39:23;9.15;;;2.60;;
51248;SDS011;39642;47.556;18.728;2023-07-13T06:41:49;9.15;;;2.60;;
51248;SDS011;39642;47.556;18.728;2023-07-13T06:44:15;8.30;;;2.50;;
51248;SDS011;39642;47.556;18.728;2023-07-13T06:46:40;7.93;;;2.50;;
51248;SDS011;39642;47.556;18.728;2023-07-13T06:49:08;8.48;;;2.45;;
51248;SDS011;39642;47.556;18.728;2023-07-13T06:51:34;9.15;;;2.60;;
51248;SDS011;39642;47.556;18.728;2023-07-13T06:54:00;9.88;;;2.55;;
51248;SDS011;39642;47.556;18.728;2023-07-13T06:56:26;8.43;;;2.62;;
51248;SDS011;39642;47.556;18.728;2023-07-13T06:58:51;9.35;;;2.62;;
51248;SDS011;39642;47.556;18.728;2023-07-13T07:01:17;7.82;;;2.58;;
51248;SDS011;39642;47.556;18.728;2023-07-13T07:03:43;8.30;;;2.60;;
51248;SDS011;39642;47.556;18.728;2023-07-13T07:08:45;8.05;;;2.47;;
51248;SDS011;39642;47.556;18.728;2023-07-13T07:11:12;7.93;;;2.42;;
51248;SDS011;39642;47.556;18.728;2023-07-13T07:13:40;9.77;;;2.80;;
51248;SDS011;39642;47.556;18.728;2023-07-13T07:16:06;9.45;;;2.60;;
51248;SDS011;39642;47.556;18.728;2023-07-13T07:18:32;8.13;;;2.60;;
51248;SDS011;39642;47.556;18.728;2023-07-13T07:20:58;8.90;;;2.70;;
51248;SDS011;39642;47.556;18.728;2023-07-13T07:23:23;9.15;;;2.70;;
51248;SDS011;39642;47.556;18.728;2023-07-13T07:25:49;8.18;;;2.45;;
51248;SDS011;39642;47.556;18.728;2023-07-13T07:28:17;7.07;;;2.25;;
51248;SDS011;39642;47.556;18.728;2023-07-13T07:30:44;8.85;;;2.35;;
51248;SDS011;39642;47.556;18.728;2023-07-13T07:33:10;8.57;;;2.37;;
51248;SDS011;39642;47.556;18.728;2023-07-13T07:35:36;10.13;;;2.80;;
51248;SDS011;39642;47.556;18.728;2023-07-13T07:38:02;8.63;;;2.33;;
51248;SDS011;39642;47.556;18.728;2023-07-13T07:40:28;9.20;;;2.42;;
51248;SDS011;39642;47.556;18.728;2023-07-13T07:42:54;9.60;;;2.55;;
51248;SDS011;39642;47.556;18.728;2023-07-13T07:45:20;10.10;;;2.40;;
51248;SDS011;39642;47.556;18.728;2023-07-13T07:47:47;8.25;;;2.30;;
51248;SDS011;39642;47.556;18.728;2023-07-13T07:50:13;9.15;;;2.25;;
51248;SDS011;39642;47.556;18.728;2023-07-13T07:52:38;8.65;;;2.45;;
51248;SDS011;39642;47.556;18.728;2023-07-13T07:55:05;8.15;;;2.30;;
51248;SDS011;39642;47.556;18.728;2023-07-13T07:57:32;7.90;;;2.50;;
51248;SDS011;39642;47.556;18.728;2023-07-13T07:59:58;8.60;;;2.33;;
51248;SDS011;39642;47.556;18.728;2023-07-13T08:02:24;8.57;;;2.45;;
51248;SDS011;39642;47.556;18.728;2023-07-13T08:04:51;8.15;;;2.40;;
51248;SDS011;39642;47.556;18.728;2023-07-13T08:07:17;8.35;;;2.33;;
51248;SDS011;39642;47.556;18.728;2023-07-13T08:09:43;8.60;;;2.50;;
51248;SDS011;39642;47.556;18.728;2023-07-13T08:12:09;8.55;;;2.47;;
51248;SDS011;39642;47.556;18.728;2023-07-13T08:14:35;9.27;;;2.20;;
51248;SDS011;39642;47.556;18.728;2023-07-13T08:17:01;7.05;;;2.33;;
51248;SDS011;39642;47.556;18.728;2023-07-13T08:19:26;8.43;;;2.72;;
51248;SDS011;39642;47.556;18.728;2023-07-13T08:21:52;7.78;;;2.50;;
51248;SDS011;39642;47.556;18.728;2023-07-13T08:24:18;7.95;;;2.40;;
51248;SDS011;39642;47.556;18.728;2023-07-13T08:26:47;8.32;;;2.35;;
51248;SDS011;39642;47.556;18.728;2023-07-13T08:29:13;8.88;;;2.62;;
51248;SDS011;39642;47.556;18.728;2023-07-13T08:31:39;8.38;;;2.40;;
51248;SDS011;39642;47.556;18.728;2023-07-13T08:34:05;7.43;;;2.45;;
51248;SDS011;39642;47.556;18.728;2023-07-13T08:36:31;8.10;;;2.10;;
51248;SDS011;39642;47.556;18.728;2023-07-13T08:38:56;8.70;;;2.20;;
51248;SDS011;39642;47.556;18.728;2023-07-13T08:41:22;7.97;;;2.35;;
51248;SDS011;39642;47.556;18.728;2023-07-13T08:43:50;8.25;;;2.30;;
51248;SDS011;39642;47.556;18.728;2023-07-13T08:46:26;7.18;;;2.20;;
51248;SDS011;39642;47.556;18.728;2023-07-13T08:48:58;7.30;;;2.30;;
51248;SDS011;39642;47.556;18.728;2023-07-13T08:51:49;7.53;;;2.22;;
51248;SDS011;39642;47.556;18.728;2023-07-13T08:56:53;7.53;;;2.30;;
51248;SDS011;39642;47.556;18.728;2023-07-13T08:59:20;8.27;;;2.22;;
51248;SDS011;39642;47.556;18.728;2023-07-13T09:10:20;8.02;;;2.40;;
51248;SDS011;39642;47.556;18.728;2023-07-13T09:15:57;7.68;;;2.30;;
51248;SDS011;39642;47.556;18.728;2023-07-13T09:18:28;7.60;;;2.40;;
51248;SDS011;39642;47.556;18.728;2023-07-13T09:21:03;7.12;;;2.25;;
51248;SDS011;39642;47.556;18.728;2023-07-13T09:23:40;7.25;;;2.15;;
51248;SDS011;39642;47.556;18.728;2023-07-13T09:26:19;8.00;;;2.00;;
51248;SDS011;39642;47.556;18.728;2023-07-13T09:28:47;8.60;;;2.33;;
51248;SDS011;39642;47.556;18.728;2023-07-13T09:31:19;6.78;;;2.00;;
51248;SDS011;39642;47.556;18.728;2023-07-13T09:33:49;7.43;;;2.47;;
51248;SDS011;39642;47.556;18.728;2023-07-13T09:36:29;8.10;;;2.30;;
51248;SDS011;39642;47.556;18.728;2023-07-13T09:42:12;5.72;;;2.00;;
51248;SDS011;39642;47.556;18.728;2023-07-13T09:47:18;7.93;;;2.30;;
51248;SDS011;39642;47.556;18.728;2023-07-13T09:49:54;8.73;;;2.10;;
51248;SDS011;39642;47.556;18.728;2023-07-13T09:52:21;7.62;;;2.30;;
51248;SDS011;39642;47.556;18.728;2023-07-13T09:54:49;7.50;;;2.28;;
51248;SDS011;39642;47.556;18.728;2023-07-13T09:57:17;7.32;;;2.22;;
51248;SDS011;39642;47.556;18.728;2023-07-13T09:59:46;7.10;;;2.25;;
51248;SDS011;39642;47.556;18.728;2023-07-13T10:02:22;7.35;;;2.30;;
51248;SDS011;39642;47.556;18.728;2023-07-13T10:05:10;6.75;;;2.12;;
51248;SDS011;39642;47.556;18.728;2023-07-13T10:07:40;7.68;;;2.15;;
51248;SDS011;39642;47.556;18.728;2023-07-13T10:10:20;7.47;;;2.47;;
51248;SDS011;39642;47.556;18.728;2023-07-13T10:12:48;7.75;;;2.30;;
51248;SDS011;39642;47.556;18.728;2023-07-13T10:15:17;7.70;;;2.15;;
51248;SDS011;39642;47.556;18.728;2023-07-13T10:17:46;8.38;;;2.42;;
51248;SDS011;39642;47.556;18.728;2023-07-13T10:20:12;7.70;;;2.12;;
51248;SDS011;39642;47.556;18.728;2023-07-13T10:25:18;6.22;;;2.17;;
51248;SDS011;39642;47.556;18.728;2023-07-13T10:27:49;7.60;;;2.12;;
51248;SDS011;39642;47.556;18.728;2023-07-13T10:32:57;6.55;;;2.00;;
51248;SDS011;39642;47.556;18.728;2023-07-13T10:35:24;8.00;;;2.45;;
51248;SDS011;39642;47.556;18.728;2023-07-13T10:37:55;7.20;;;2.12;;
51248;SDS011;39642;47.556;18.728;2023-07-13T10:41:03;6.57;;;2.20;;
51248;SDS011;39642;47.556;18.728;2023-07-13T10:43:32;7.43;;;2.12;;
51248;SDS011;39642;47.556;18.728;2023-07-13T10:46:02;8.48;;;2.33;;
51248;SDS011;39642;47.556;18.728;2023-07-13T10:48:31;8.85;;;2.50;;
51248;SDS011;39642;47.556;18.728;2023-07-13T10:51:00;8.07;;;2.45;;
51248;SDS011;39642;47.556;18.728;2023-07-13T10:53:31;7.60;;;2.33;;
51248;SDS011;39642;47.556;18.728;2023-07-13T10:56:05;7.75;;;2.25;;
51248;SDS011;39642;47.556;18.728;2023-07-13T10:58:44;8.43;;;2.25;;
51248;SDS011;39642;47.556;18.728;2023-07-13T11:03:38;7.28;;;2.20;;
51248;SDS011;39642;47.556;18.728;2023-07-13T11:13:55;7.45;;;2.25;;
51248;SDS011;39642;47.556;18.728;2023-07-13T11:16:46;8.05;;;2.20;;
51248;SDS011;39642;47.556;18.728;2023-07-13T11:27:21;7.80;;;2.30;;
51248;SDS011;39642;47.556;18.728;2023-07-13T11:29:57;7.62;;;2.28;;
51248;SDS011;39642;47.556;18.728;2023-07-13T11:32:46;7.37;;;2.30;;
51248;SDS011;39642;47.556;18.728;2023-07-13T11:35:19;8.15;;;2.28;;
51248;SDS011;39642;47.556;18.728;2023-07-13T11:37:49;7.97;;;2.22;;
51248;SDS011;39642;47.556;18.728;2023-07-13T11:40:16;7.78;;;2.25;;
51248;SDS011;39642;47.556;18.728;2023-07-13T11:42:42;6.68;;;2.20;;
51248;SDS011;39642;47.556;18.728;2023-07-13T11:45:18;7.62;;;2.20;;
51248;SDS011;39642;47.556;18.728;2023-07-13T11:47:48;7.37;;;2.35;;
51248;SDS011;39642;47.556;18.728;2023-07-13T11:50:19;7.53;;;2.33;;
51248;SDS011;39642;47.556;18.728;2023-07-13T11:52:48;6.40;;;2.00;;
51248;SDS011;39642;47.556;18.728;2023-07-13T11:55:16;7.87;;;2.20;;
51248;SDS011;39642;47.556;18.728;2023-07-13T11:57:45;7.00;;;2.20;;
51248;SDS011;39642;47.556;18.728;2023-07-13T12:00:17;8.40;;;2.60;;
51248;SDS011;39642;47.556;18.728;2023-07-13T12:02:54;6.93;;;2.50;;
51248;SDS011;39642;47.556;18.728;2023-07-13T12:05:22;7.78;;;2.25;;
51248;SDS011;39642;47.556;18.728;2023-07-13T12:07:49;9.75;;;2.60;;
51248;SDS011;39642;47.556;18.728;2023-07-13T12:10:26;7.00;;;2.20;;
51248;SDS011;39642;47.556;18.728;2023-07-13T12:12:58;6.78;;;2.25;;
51248;SDS011;39642;47.556;18.728;2023-07-13T12:15:28;9.43;;;2.50;;
51248;SDS011;39642;47.556;18.728;2023-07-13T12:18:00;6.95;;;2.17;;
51248;SDS011;39642;47.556;18.728;2023-07-13T12:20:27;7.18;;;2.30;;
51248;SDS011;39642;47.556;18.728;2023-07-13T12:23:00;7.50;;;2.40;;
51248;SDS011;39642;47.556;18.728;2023-07-13T12:25:28;7.53;;;2.40;;
51248;SDS011;39642;47.556;18.728;2023-07-13T12:27:54;8.10;;;2.70;;
51248;SDS011;39642;47.556;18.728;2023-07-13T12:30:24;8.13;;;2.40;;
51248;SDS011;39642;47.556;18.728;2023-07-13T12:32:56;7.57;;;2.40;;
51248;SDS011;39642;47.556;18.728;2023-07-13T12:35:24;7.55;;;2.30;;
51248;SDS011;39642;47.556;18.728;2023-07-13T12:37:52;8.43;;;2.37;;
51248;SDS011;39642;47.556;18.728;2023-07-13T12:40:19;8.43;;;2.37;;
51248;SDS011;39642;47.556;18.728;2023-07-13T12:42:48;7.28;;;2.65;;
51248;SDS011;39642;47.556;18.728;2023-07-13T12:45:20;8.55;;;2.42;;
51248;SDS011;39642;47.556;18.728;2023-07-13T12:47:49;7.35;;;2.40;;
51248;SDS011;39642;47.556;18.728;2023-07-13T12:50:21;7.25;;;2.42;;
51248;SDS011;39642;47.556;18.728;2023-07-13T12:52:56;8.00;;;2.62;;
51248;SDS011;39642;47.556;18.728;2023-07-13T12:55:40;7.85;;;2.47;;
51248;SDS011;39642;47.556;18.728;2023-07-13T12:58:20;8.43;;;2.20;;
51248;SDS011;39642;47.556;18.728;2023-07-13T13:00:51;7.68;;;2.40;;
51248;SDS011;39642;47.556;18.728;2023-07-13T13:06:01;9.13;;;2.42;;
51248;SDS011;39642;47.556;18.728;2023-07-13T13:08:29;8.02;;;2.55;;
51248;SDS011;39642;47.556;18.728;2023-07-13T13:10:56;7.10;;;2.33;;
51248;SDS011;39642;47.556;18.728;2023-07-13T13:13:22;8.18;;;2.30;;
51248;SDS011;39642;47.556;18.728;2023-07-13T13:15:48;7.80;;;2.50;;
51248;SDS011;39642;47.556;18.728;2023-07-13T13:18:17;8.30;;;2.58;;
51248;SDS011;39642;47.556;18.728;2023-07-13T13:20:44;8.02;;;2.53;;
51248;SDS011;39642;47.556;18.728;2023-07-13T13:23:19;7.70;;;2.37;;
51248;SDS011;39642;47.556;18.728;2023-07-13T13:25:46;8.48;;;2.40;;
51248;SDS011;39642;47.556;18.728;2023-07-13T13:28:18;6.85;;;2.25;;
51248;SDS011;39642;47.556;18.728;2023-07-13T13:30:46;8.90;;;2.65;;
51248;SDS011;39642;47.556;18.728;2023-07-13T13:33:16;7.53;;;2.50;;
51248;SDS011;39642;47.556;18.728;2023-07-13T13:35:45;7.95;;;2.30;;
51248;SDS011;39642;47.556;18.728;2023-07-13T13:38:16;7.85;;;2.50;;
51248;SDS011;39642;47.556;18.728;2023-07-13T13:40:45;8.35;;;2.60;;
51248;SDS011;39642;47.556;18.728;2023-07-13T13:43:15;7.93;;;2.80;;
51248;SDS011;39642;47.556;18.728;2023-07-13T13:45:51;8.10;;;2.50;;
51248;SDS011;39642;47.556;18.728;2023-07-13T13:48:21;8.13;;;2.55;;
51248;SDS011;39642;47.556;18.728;2023-07-13T13:50:56;8.15;;;2.40;;
51248;SDS011;39642;47.556;18.728;2023-07-13T13:53:22;7.03;;;2.37;;
51248;SDS011;39642;47.556;18.728;2023-07-13T13:55:49;7.70;;;2.28;;
51248;SDS011;39642;47.556;18.728;2023-07-13T13:58:15;7.45;;;2.40;;
51248;SDS011;39642;47.556;18.728;2023-07-13T14:00:41;8.88;;;2.45;;
51248;SDS011;39642;47.556;18.728;2023-07-13T14:03:14;7.93;;;2.55;;
51248;SDS011;39642;47.556;18.728;2023-07-13T14:05:42;7.68;;;2.40;;
51248;SDS011;39642;47.556;18.728;2023-07-13T14:08:12;7.37;;;2.53;;
51248;SDS011;39642;47.556;18.728;2023-07-13T14:10:40;8.07;;;2.37;;
51248;SDS011;39642;47.556;18.728;2023-07-13T14:13:07;8.82;;;2.72;;
51248;SDS011;39642;47.556;18.728;2023-07-13T14:15:46;8.02;;;2.67;;
51248;SDS011;39642;47.556;18.728;2023-07-13T14:18:13;8.05;;;2.55;;
51248;SDS011;39642;47.556;18.728;2023-07-13T14:20:47;8.48;;;2.37;;
51248;SDS011;39642;47.556;18.728;2023-07-13T14:23:14;7.53;;;2.50;;
51248;SDS011;39642;47.556;18.728;2023-07-13T14:25:41;8.45;;;2.30;;
51248;SDS011;39642;47.556;18.728;2023-07-13T14:28:21;8.40;;;2.70;;
51248;SDS011;39642;47.556;18.728;2023-07-13T14:30:50;9.70;;;2.70;;
51248;SDS011;39642;47.556;18.728;2023-07-13T14:33:16;7.70;;;2.50;;
51248;SDS011;39642;47.556;18.728;2023-07-13T14:35:42;7.43;;;2.60;;
51248;SDS011;39642;47.556;18.728;2023-07-13T14:38:09;7.57;;;2.60;;
51248;SDS011;39642;47.556;18.728;2023-07-13T14:40:38;8.45;;;2.42;;
51248;SDS011;39642;47.556;18.728;2023-07-13T14:43:04;7.80;;;2.67;;
51248;SDS011;39642;47.556;18.728;2023-07-13T14:45:30;7.72;;;2.50;;
51248;SDS011;39642;47.556;18.728;2023-07-13T14:47:57;7.90;;;2.40;;
51248;SDS011;39642;47.556;18.728;2023-07-13T14:50:26;8.55;;;2.65;;
51248;SDS011;39642;47.556;18.728;2023-07-13T14:52:56;8.77;;;2.62;;
51248;SDS011;39642;47.556;18.728;2023-07-13T14:55:22;7.05;;;2.30;;
51248;SDS011;39642;47.556;18.728;2023-07-13T14:57:51;7.40;;;2.50;;
51248;SDS011;39642;47.556;18.728;2023-07-13T15:00:19;7.97;;;2.50;;
51248;SDS011;39642;47.556;18.728;2023-07-13T15:02:54;7.50;;;2.45;;
51248;SDS011;39642;47.556;18.728;2023-07-13T15:05:24;8.20;;;2.50;;
51248;SDS011;39642;47.556;18.728;2023-07-13T15:07:52;8.40;;;2.50;;
51248;SDS011;39642;47.556;18.728;2023-07-13T15:10:23;7.70;;;2.35;;
51248;SDS011;39642;47.556;18.728;2023-07-13T15:12:56;8.00;;;2.58;;
51248;SDS011;39642;47.556;18.728;2023-07-13T15:15:43;7.22;;;2.40;;
51248;SDS011;39642;47.556;18.728;2023-07-13T15:18:11;8.10;;;2.67;;
51248;SDS011;39642;47.556;18.728;2023-07-13T15:20:38;8.52;;;2.42;;
51248;SDS011;39642;47.556;18.728;2023-07-13T15:23:04;8.10;;;2.67;;
51248;SDS011;39642;47.556;18.728;2023-07-13T15:25:31;9.65;;;2.70;;